Flight Track Log - Related Links

Times and Time Zones

All times are in EDT time to prevent confusion due to time zone crossing. See the BER3731 flight status page for this flight to view local times or setup timezone preferences in your user account.

Time Position Orientation Groundspeed Altitude Reporting Facility
EDT Latitude Longitude Course Direction KTS MPH feet Rate Location/Type
Sun 05:07:02 PM 36.9270 30.8210 25° Northeast 162 186 1,600  Level FlightAware ADS-B
Sun 05:07:27 PM 36.9480 30.8300 19° North 205 236 2,100 1,000 Climbing FlightAware ADS-B
Sun 05:07:32 PM 36.9540 30.8320 15° North 215 247 2,100 1,400 Level FlightAware ADS-B
Sun 05:07:57 PM 36.9800 30.8300 356° North 242 278 2,800 2,291 Climbing FlightAware ADS-B
Sun 05:08:27 PM 37.0170 30.8240 353° North 264 304 4,200 3,164 Climbing FlightAware ADS-B
Sun 05:08:52 PM 37.0470 30.8190 352° North 261 300 5,700 3,072 Climbing FlightAware ADS-B
Sun 05:10:32 PM 37.1750 30.7990 353° North 276 318 10,600 2,444 Climbing FlightAware ADS-B
Sun 05:11:07 PM 37.2240 30.7920 354° North 328 377 11,200 1,881 Climbing FlightAware ADS-B
Sun 05:13:00 PM 37.3626 30.6297 317° Northwest  Level Estimated
Sun 05:13:37 PM 37.4800 30.7530 317° Northwest 386 444 16,400  Level FlightAware ADS-B
Sun 05:15:37 PM 37.6980 30.7200 353° North 422 486 19,700 1,388 Climbing FlightAware ADS-B
Sun 05:16:17 PM 37.7710 30.7090 353° North 418 481 20,100 1,722 Climbing FlightAware ADS-B
Sun 05:17:32 PM 37.9260 30.6850 353° North 435 501 23,000 1,722 Climbing FlightAware ADS-B
Sun 05:18:12 PM 38.0020 30.6730 353° North 438 504 23,400 1,074 Climbing FlightAware ADS-B
Sun 05:19:07 PM 38.1140 30.6550 353° North 444 511 24,700 821 Climbing FlightAware ADS-B
Sun 05:19:47 PM 38.1830 30.6420 352° North 444 511 24,700  Level FlightAware ADS-B
Sun 05:20:27 PM 38.2520 30.6300 352° North 444 511 24,700  Level FlightAware ADS-B
Sun 05:21:17 PM 38.3380 30.6140 352° North 444 511 24,700  Level FlightAware ADS-B
Sun 05:21:57 PM 38.4080 30.6020 352° North 444 511 24,700  Level FlightAware ADS-B
Sun 05:22:37 PM 38.4770 30.5900 352° North 444 511 24,700 1,968 Level FlightAware ADS-B
Sun 05:25:00 PM 38.6453 30.3717 315° West  Level Estimated
Sun 05:25:17 PM 38.8610 30.3310 315° West 32,700  Level FlightAware ADS-B
Sun 05:26:07 PM 38.9460 30.2900 339° North 446 513 32,900 695 Climbing FlightAware ADS-B
Sun 05:26:52 PM 39.0370 30.2460 339° North 445 512 33,800 1,326 Climbing FlightAware ADS-B
Sun 05:27:42 PM 39.1390 30.1960 339° North 435 501 35,000 587 Climbing FlightAware ADS-B
Sun 05:29:52 PM 39.3810 30.0780 339° North 36,000 343 Climbing FlightAware ADS-B
Sun 05:30:37 PM 39.4620 30.0280 335° Northwest 434 499 36,000  Level FlightAware ADS-B
Sun 05:31:17 PM 39.5320 29.9650 325° Northwest 427 491 36,000  Level FlightAware ADS-B
Sun 05:32:02 PM 39.6020 29.8930 322° Northwest 418 481 36,000  Level FlightAware ADS-B
Sun 05:32:42 PM 39.6590 29.8340 321° Northwest 425 489 36,000  Level FlightAware ADS-B
Sun 05:33:17 PM 39.7080 29.7820 321° Northwest 427 491 36,000  Level FlightAware ADS-B
Sun 05:34:07 PM 39.7900 29.6980 322° Northwest 432 497 36,000  Level FlightAware ADS-B
Sun 05:34:52 PM 39.8630 29.6220 321° Northwest 433 498 36,000  Level FlightAware ADS-B
Sun 05:36:07 PM 39.9810 29.4990 321° Northwest 436 502 36,000 40 Level FlightAware ADS-B
Sun 05:37:22 PM 40.1010 29.3720 321° Northwest 435 501 36,100  Climbing FlightAware ADS-B
Sun 05:38:17 PM 40.1790 29.2900 321° Northwest 433 498 36,000 -60 Descending FlightAware ADS-B
Sun 05:39:02 PM 40.2500 29.2150 321° Northwest 432 497 36,000  Level FlightAware ADS-B
Sun 05:39:42 PM 40.3130 29.1470 321° Northwest 432 497 36,000  Level FlightAware ADS-B
Sun 05:40:22 PM 40.3750 29.0820 321° Northwest 435 501 36,000  Level FlightAware ADS-B
Sun 05:41:07 PM 40.4440 29.0080 321° Northwest 434 499 36,000  Level FlightAware ADS-B
Sun 05:41:47 PM 40.5070 28.9410 321° Northwest 433 498 36,000  Level FlightAware ADS-B
Sun 05:42:27 PM 40.5690 28.8740 321° Northwest 434 499 36,000  Level FlightAware ADS-B
Sun 05:43:12 PM 40.6390 28.7980 321° Northwest 437 503 36,000  Level FlightAware ADS-B
Sun 05:43:52 PM 40.7020 28.7310 321° Northwest 440 506 36,000  Level FlightAware ADS-B
Sun 05:44:32 PM 40.7640 28.6640 321° Northwest 437 503 36,000  Level FlightAware ADS-B
Sun 05:45:17 PM 40.8360 28.5850 320° Northwest 443 510 36,000 67 Level FlightAware ADS-B
Sun 05:46:02 PM 40.9050 28.5110 321° Northwest 441 507 36,100  Climbing FlightAware ADS-B
Sun 05:46:42 PM 40.9710 28.4390 321° Northwest 440 506 36,000 -75 Descending FlightAware ADS-B
Sun 05:47:22 PM 41.0330 28.3710 320° Northwest 439 505 36,000  Level FlightAware ADS-B
Sun 05:48:07 PM 41.1040 28.2940 321° Northwest 441 507 36,000  Level FlightAware ADS-B
Sun 05:48:47 PM 41.1650 28.2260 320° Northwest 444 511 36,000  Level FlightAware ADS-B
Sun 05:49:32 PM 41.2360 28.1480 320° Northwest 444 511 36,000  Level FlightAware ADS-B
Sun 05:50:12 PM 41.3030 28.0740 320° Northwest 446 513 36,000  Level FlightAware ADS-B
Sun 05:50:52 PM 41.3660 28.0050 321° Northwest 448 516 36,000  Level FlightAware ADS-B
Sun 05:51:37 PM 41.4400 27.9230 320° Northwest 450 518 36,000  Level FlightAware ADS-B
Sun 05:52:17 PM 41.5060 27.8490 320° Northwest 448 516 36,000  Level FlightAware ADS-B
Sun 05:53:02 PM 41.5720 27.7750 320° Northwest 442 509 36,000  Level FlightAware ADS-B
Sun 05:53:42 PM 41.6390 27.7000 320° Northwest 444 511 36,000  Level FlightAware ADS-B
Sun 05:54:07 PM 41.6790 27.6550 320° Northwest 443 510 36,000  Level FlightAware ADS-B
Sun 05:54:52 PM 41.7490 27.5760 320° Northwest 442 509 36,000  Level FlightAware ADS-B
Sun 05:55:32 PM 41.8100 27.5070 320° Northwest 430 495 36,000  Level FlightAware ADS-B
Sun 05:56:17 PM 41.8790 27.4280 320° Northwest 432 497 36,000  Level FlightAware ADS-B
Sun 05:56:57 PM 41.9360 27.3530 316° Northwest 432 497 36,000  Level FlightAware ADS-B
Sun 05:57:42 PM 42.0010 27.2650 315° West 432 497 36,000  Level FlightAware ADS-B
Sun 05:58:22 PM 42.0550 27.1910 315° West 432 497 36,000  Level FlightAware ADS-B
Sun 05:59:02 PM 42.1120 27.1130 315° West 434 499 36,000  Level FlightAware ADS-B
Sun 05:59:47 PM 42.1730 27.0300 315° West 434 499 36,000  Level FlightAware ADS-B
Sun 06:00:27 PM 42.2270 26.9550 314° West 433 498 36,000  Level FlightAware ADS-B
Sun 06:01:02 PM 42.2770 26.8860 314° West 432 497 36,000  Level FlightAware ADS-B
Sun 06:01:42 PM 42.3360 26.8040 314° West 432 497 36,000  Level FlightAware ADS-B
Sun 06:02:27 PM 42.3940 26.7250 315° West 431 496 36,000  Level FlightAware ADS-B
Sun 06:03:17 PM 42.4630 26.6290 314° West 430 495 36,000  Level FlightAware ADS-B
Sun 06:03:57 PM 42.5200 26.5490 314° West 429 494 36,000  Level FlightAware ADS-B
Sun 06:04:42 PM 42.5850 26.4570 314° West 431 496 36,000  Level FlightAware ADS-B
Sun 06:05:22 PM 42.6390 26.3820 314° West 434 499 36,000  Level FlightAware ADS-B
Sun 06:06:02 PM 42.6960 26.3020 314° West 434 499 36,000  Level FlightAware ADS-B
Sun 06:06:47 PM 42.7510 26.2240 314° West 434 499 36,000  Level FlightAware ADS-B
Sun 06:07:27 PM 42.8140 26.1340 314° West 435 501 36,000  Level FlightAware ADS-B
Sun 06:08:02 PM 42.8610 26.0680 314° West 434 499 36,000  Level FlightAware ADS-B
Sun 06:08:52 PM 42.9290 25.9710 314° West 435 501 36,000  Level FlightAware ADS-B
Sun 06:09:32 PM 42.9840 25.8930 314° West 434 499 36,000  Level FlightAware ADS-B
Sun 06:10:17 PM 43.0450 25.8060 314° West 435 501 36,000  Level FlightAware ADS-B
Sun 06:10:47 PM 43.0910 25.7400 314° West 436 502 36,000  Level FlightAware ADS-B
Sun 06:11:37 PM 43.1600 25.6410 314° West 435 501 36,000  Level FlightAware ADS-B
Sun 06:12:17 PM 43.2170 25.5580 313° West 435 501 36,000  Level FlightAware ADS-B
Sun 06:13:02 PM 43.2740 25.4750 313° West 435 501 36,000  Level FlightAware ADS-B
Sun 06:13:47 PM 43.3390 25.3820 314° West 437 503 36,000  Level FlightAware ADS-B
Sun 06:14:27 PM 43.3950 25.2990 313° West 438 504 36,000  Level FlightAware ADS-B
Sun 06:15:07 PM 43.4510 25.2180 314° West 437 503 36,000  Level FlightAware ADS-B
Sun 06:15:42 PM 43.4990 25.1470 313° West 436 502 36,000  Level FlightAware ADS-B
Sun 06:16:32 PM 43.5680 25.0460 313° West 433 498 36,000  Level FlightAware ADS-B
Sun 06:17:12 PM 43.6230 24.9650 313° West 430 495 36,000  Level FlightAware ADS-B
Sun 06:17:57 PM 43.6840 24.8750 313° West 431 496 36,000  Level FlightAware ADS-B
Sun 06:18:32 PM 43.7300 24.8050 312° West 433 498 36,000  Level FlightAware ADS-B
Sun 06:19:22 PM 43.7930 24.7050 311° West 433 498 36,000  Level FlightAware ADS-B
Sun 06:20:02 PM 43.8470 24.6200 311° West 432 497 36,000  Level FlightAware ADS-B
Sun 06:20:42 PM 43.9020 24.5320 311° West 433 498 36,000  Level FlightAware ADS-B
Sun 06:21:22 PM 43.9550 24.4480 311° West 433 498 36,000  Level FlightAware ADS-B
Sun 06:22:02 PM 44.0090 24.3630 311° West 435 501 36,000  Level FlightAware ADS-B
Sun 06:22:52 PM 44.0590 24.2830 311° West 434 499 36,000  Level FlightAware ADS-B
Sun 06:23:32 PM 44.1230 24.1810 311° West 435 501 36,000  Level FlightAware ADS-B
Sun 06:24:17 PM 44.1850 24.0820 311° West 433 498 36,000  Level FlightAware ADS-B
Sun 06:24:47 PM 44.2240 24.0190 311° West 433 498 36,000  Level FlightAware ADS-B
Sun 06:25:37 PM 44.2890 23.9140 311° West 434 499 36,000  Level FlightAware ADS-B
Sun 06:26:22 PM 44.3460 23.8220 311° West 434 499 36,000  Level FlightAware ADS-B
Sun 06:26:52 PM 44.3880 23.7540 311° West 434 499 36,000  Level FlightAware ADS-B
Sun 06:27:47 PM 44.4580 23.6390 310° West 434 499 36,000  Level FlightAware ADS-B
Sun 06:28:17 PM 44.4950 23.5790 311° West 434 499 36,000  Level FlightAware ADS-B
Sun 06:29:07 PM 44.5630 23.4680 311° West 435 501 36,000  Level FlightAware ADS-B
Sun 06:29:52 PM 44.6210 23.3720 310° West 437 503 36,000  Level FlightAware ADS-B
Sun 06:30:32 PM 44.6710 23.2900 311° West 437 503 36,000  Level FlightAware ADS-B
Sun 06:31:17 PM 44.7320 23.1900 311° West 437 503 36,000  Level FlightAware ADS-B
Sun 06:31:57 PM 44.7840 23.1020 310° West 437 503 36,000  Level FlightAware ADS-B
Sun 06:32:37 PM 44.8370 23.0140 310° West 438 504 36,000  Level FlightAware ADS-B
Sun 06:33:22 PM 44.8930 22.9200 310° West 439 505 36,000  Level FlightAware ADS-B
Sun 06:34:17 PM 44.9650 22.7990 310° West 440 506 36,000  Level FlightAware ADS-B
Sun 06:34:57 PM 45.0200 22.7060 310° West 440 506 36,000  Level FlightAware ADS-B
Sun 06:35:42 PM 45.0770 22.6100 310° West 441 507 36,000  Level FlightAware ADS-B
Sun 06:36:22 PM 45.1310 22.5200 310° West 441 507 36,000  Level FlightAware ADS-B
Sun 06:37:02 PM 45.1840 22.4290 310° West 442 509 36,000  Level FlightAware ADS-B
Sun 06:37:37 PM 45.2280 22.3540 310° West 443 510 36,000  Level FlightAware ADS-B
Sun 06:38:27 PM 45.3000 22.2300 310° West 443 510 36,000  Level FlightAware ADS-B
Sun 06:39:07 PM 45.3460 22.1520 310° West 444 511 36,000  Level FlightAware ADS-B
Sun 06:39:47 PM 45.3980 22.0610 309° West 444 511 36,000  Level FlightAware ADS-B
Sun 06:40:32 PM 45.4540 21.9640 309° West 444 511 36,000  Level FlightAware ADS-B
Sun 06:41:17 PM 45.5150 21.8600 310° West 442 509 36,000  Level FlightAware ADS-B
Sun 06:42:12 PM 45.5840 21.7390 309° West 442 509 36,000  Level FlightAware ADS-B
Sun 06:42:47 PM 45.6350 21.6500 309° West 442 509 36,000  Level FlightAware ADS-B
Sun 06:43:37 PM 45.6940 21.5450 309° West 442 509 36,000  Level FlightAware ADS-B
Sun 06:44:17 PM 45.7440 21.4580 309° West 444 511 36,000  Level FlightAware ADS-B
Sun 06:45:02 PM 45.8080 21.3440 309° West 444 511 36,000  Level FlightAware ADS-B
Sun 06:45:42 PM 45.8590 21.2550 309° West 441 507 36,000  Level FlightAware ADS-B
Sun 06:46:22 PM 45.9110 21.1610 309° West 441 507 36,000  Level FlightAware ADS-B
Sun 06:47:07 PM 45.9700 21.0570 309° West 441 507 36,000  Level FlightAware ADS-B
Sun 06:47:47 PM 46.0190 20.9690 309° West 445 512 36,000  Level FlightAware ADS-B
Sun 06:48:32 PM 46.0790 20.8610 309° West 444 511 36,000  Level FlightAware ADS-B
Sun 06:49:07 PM 46.1200 20.7760 305° West 443 510 36,000  Level FlightAware ADS-B
Sun 06:49:52 PM 46.1650 20.6620 300° West 445 512 36,000  Level FlightAware ADS-B
Sun 06:50:37 PM 46.2110 20.5410 299° West 446 513 36,000  Level FlightAware ADS-B
Sun 06:51:17 PM 46.2520 20.4350 299° West 447 514 36,000  Level FlightAware ADS-B
Sun 06:52:02 PM 46.2980 20.3160 299° West 447 514 36,000  Level FlightAware ADS-B
Sun 06:52:42 PM 46.3380 20.2110 299° West 448 516 36,000  Level FlightAware ADS-B
Sun 06:53:27 PM 46.3820 20.0950 299° West 448 516 36,000  Level FlightAware ADS-B
Sun 06:54:07 PM 46.4220 19.9870 298° West 449 517 36,000  Level FlightAware ADS-B
Sun 06:54:47 PM 46.4600 19.8850 298° West 449 517 36,000  Level FlightAware ADS-B
Sun 06:55:32 PM 46.5070 19.7610 299° West 451 519 36,000  Level FlightAware ADS-B
Sun 06:56:12 PM 46.5450 19.6570 298° West 451 519 36,000  Level FlightAware ADS-B
Sun 06:56:57 PM 46.5910 19.5340 299° West 451 519 36,000  Level FlightAware ADS-B
Sun 06:57:37 PM 46.6300 19.4280 298° West 451 519 36,000  Level FlightAware ADS-B
Sun 06:58:17 PM 46.6700 19.3200 298° West 453 521 36,000  Level FlightAware ADS-B
Sun 06:59:02 PM 46.7140 19.1990 298° West 454 522 36,000  Level FlightAware ADS-B
Sun 06:59:42 PM 46.7540 19.0900 298° West 454 522 36,000  Level FlightAware ADS-B
Sun 07:00:27 PM 46.7980 18.9680 298° West 455 524 36,000  Level FlightAware ADS-B
Sun 07:01:07 PM 46.8370 18.8610 298° West 455 524 36,000  Level FlightAware ADS-B
Sun 07:01:47 PM 46.8760 18.7530 298° West 457 526 36,000  Level FlightAware ADS-B
Sun 07:02:32 PM 46.9210 18.6270 298° West 458 527 36,000  Level FlightAware ADS-B
Sun 07:03:12 PM 46.9590 18.5190 297° West 458 527 36,000  Level FlightAware ADS-B
Sun 07:03:57 PM 47.0030 18.3960 298° West 459 528 36,000  Level FlightAware ADS-B
Sun 07:04:37 PM 47.0410 18.2890 298° West 461 531 36,000  Level FlightAware ADS-B
Sun 07:05:22 PM 47.0860 18.1620 298° West 462 532 36,000  Level FlightAware ADS-B
Sun 07:06:02 PM 47.1260 18.0470 297° West 462 532 36,000  Level FlightAware ADS-B
Sun 07:06:57 PM 47.1810 17.8900 297° West 462 532 36,000  Level FlightAware ADS-B
Sun 07:07:37 PM 47.2200 17.7780 297° West 462 532 36,000  Level FlightAware ADS-B
Sun 07:08:22 PM 47.2630 17.6520 297° West 462 532 36,000  Level FlightAware ADS-B
Sun 07:09:02 PM 47.3020 17.5400 297° West 464 534 36,000  Level FlightAware ADS-B
Sun 07:09:47 PM 47.3460 17.4110 297° West 466 536 36,000  Level FlightAware ADS-B
Sun 07:10:27 PM 47.3840 17.3000 297° West 467 537 36,000  Level FlightAware ADS-B
Sun 07:11:07 PM 47.4220 17.1860 296° West 468 539 36,000  Level FlightAware ADS-B
Sun 07:11:52 PM 47.4660 17.0550 296° West 468 539 36,000  Level FlightAware ADS-B
Sun 07:12:32 PM 47.5010 16.9360 294° West 469 540 36,000  Level FlightAware ADS-B
Sun 07:13:17 PM 47.5380 16.8070 293° West 470 541 36,000  Level FlightAware ADS-B
Sun 07:13:57 PM 47.5720 16.6880 293° West 472 543 36,000  Level FlightAware ADS-B
Sun 07:14:42 PM 47.6110 16.5500 293° West 472 543 36,000  Level FlightAware ADS-B
Sun 07:15:22 PM 47.6440 16.4320 293° West 473 544 36,000  Level FlightAware ADS-B
Sun 07:16:02 PM 47.6780 16.3120 293° West 473 544 36,000  Level FlightAware ADS-B
Sun 07:16:47 PM 47.7140 16.1810 292° West 473 544 36,000  Level FlightAware ADS-B
Sun 07:17:27 PM 47.7480 16.0600 293° West 474 545 36,000  Level FlightAware ADS-B
Sun 07:18:07 PM 47.7810 15.9400 292° West 474 545 36,000  Level FlightAware ADS-B
Sun 07:18:52 PM 47.8190 15.8000 292° West 475 547 36,000  Level FlightAware ADS-B
Sun 07:19:32 PM 47.8500 15.6870 292° West 475 547 36,000  Level FlightAware ADS-B
Sun 07:20:17 PM 47.8880 15.5480 292° West 475 547 36,000  Level FlightAware ADS-B
Sun 07:20:57 PM 47.9210 15.4250 292° West 476 548 36,000  Level FlightAware ADS-B
Sun 07:21:52 PM 47.9670 15.2560 292° West 475 547 36,000  Level FlightAware ADS-B
Sun 07:23:47 PM 48.0530 14.9290 292° West 476 548 36,000  Level FlightAware ADS-B
Sun 07:24:27 PM 48.0870 14.8030 292° West 478 550 36,000  Level FlightAware ADS-B
Sun 07:25:12 PM 48.1230 14.6650 291° West 476 548 36,000 -71 Level FlightAware ADS-B
Sun 07:25:52 PM 48.1560 14.5380 291° West 475 547 35,900 -600 Descending FlightAware ADS-B
Sun 07:26:32 PM 48.1900 14.4060 291° West 476 548 35,200 -971 Descending FlightAware ADS-B
Sun 07:29:00 PM 48.3214 14.0899 302° West  Level Estimated
Sun 07:29:22 PM 48.3290 13.8860 302° West 486 559 32,500  Level FlightAware ADS-B
Sun 07:31:00 PM 48.4193 13.6794 303° West  Level Estimated
Sun 07:32:00 PM 48.4744 13.5525 303° West  Level Estimated
Sun 07:33:00 PM 48.5294 13.4254 303° West  Level Estimated
Sun 07:34:00 PM 48.5842 13.2979 303° West  Level Estimated
Sun 07:34:12 PM 48.7110 13.0810 303° West 483 556 30,000  Level FlightAware ADS-B
Sun 07:36:00 PM 48.8060 12.8472 302° West  Level Estimated
Sun 07:37:00 PM 48.8586 12.7170 302° West  Level Estimated
Sun 07:38:00 PM 48.9111 12.5864 301° West  Level Estimated
Sun 07:39:00 PM 48.9634 12.4556 301° West  Level Estimated
Sun 07:40:00 PM 49.0155 12.3245 301° West  Level Estimated
Sun 07:41:00 PM 49.0675 12.1931 301° West  Level Estimated
Sun 07:42:00 PM 49.1194 12.0615 301° West  Level Estimated
Sun 07:43:00 PM 49.1711 11.9296 301° West  Level Estimated
Sun 07:43:47 PM 49.3490 11.6850 301° West 281 323 8,000  Level FlightAware ADS-B
Sun 07:44:12 PM 49.3670 11.6460 305° West 256 295 7,900 -918 Descending FlightAware ADS-B
Sun 07:45:12 PM 49.4080 11.5520 304° West 266 306 6,700 -1,200 Descending FlightAware ADS-B
Sun 07:47:00 PM 49.4594 11.2850 287° West  Level Estimated
Sun 07:48:00 PM 49.4876 11.1364 286° West  Level Estimated
Sun 07:49:00 PM 49.4986 11.0781 286° West  Level Estimated
Sun 07:50:00 PM 49.4986 11.0781 327° Northwest  Level Estimated
Sun 07:51:00 PM 49.4986 11.0781 327° Northwest  Level Estimated
Sun 07:52:00 PM 49.4986 11.0781 327° Northwest  Level Estimated
Sun 07:53:00 PM 49.4986 11.0781 327° Northwest  Level Estimated
Sun 07:54:00 PM 49.4986 11.0781 327° Northwest  Level Estimated
Sun 07:55:00 PM 49.4986 11.0781 327° Northwest  Level Estimated
Sun 07:56:00 PM 49.4986 11.0781 327° Northwest  Level Estimated
Sun 07:57:00 PM 49.4986 11.0781 327° Northwest  Level Estimated
Sun 07:58:00 PM 49.4986 11.0781 327° Northwest  Level Estimated
Sun 07:59:00 PM 49.4986 11.0781 327° Northwest  Level Estimated
Sun 08:00:00 PM 49.4986 11.0781 327° Northwest  Level Estimated
Sun 08:01:00 PM 49.4986 11.0781 327° Northwest  Level Estimated
Sun 08:02:00 PM 49.4986 11.0781 327° Northwest  Level Estimated
Sun 08:03:00 PM 49.4986 11.0781 327° Northwest  Level Estimated
Sun 08:04:00 PM 49.4986 11.0781 327° Northwest  Level Estimated
Sun 08:05:00 PM 49.4986 11.0781 327° Northwest  Level Estimated
Sun 08:06:00 PM 49.4986 11.0781 327° Northwest  Level Estimated
Sun 08:07:00 PM 49.4986 11.0781 327° Northwest  Level Estimated
Sun 08:08:00 PM 49.4986 11.0781 327° Northwest  Level Estimated
Sun 08:09:00 PM 49.4986 11.0781 327° Northwest  Level Estimated
Sun 08:10:00 PM 49.4986 11.0781 327° Northwest  Level Estimated
Sun 08:11:00 PM 49.4986 11.0781 327° Northwest  Level Estimated
Sun 08:12:00 PM 49.4986 11.0781 327° Northwest  Level Estimated
Sun 08:13:00 PM 49.4986 11.0781 327° Northwest  Level Estimated
Sun 08:14:00 PM 49.4986 11.0781 327° Northwest  Level Estimated
Sun 08:15:00 PM 49.4986 11.0781 327° Northwest  Level Estimated
Sun 08:16:00 PM 49.4986 11.0781 327° Northwest  Level Estimated
Sun 08:17:00 PM 49.4986 11.0781 327° Northwest  Level Estimated
Sun 08:18:00 PM 49.4986 11.0781 327° Northwest  Level Estimated
Sun 08:19:00 PM 49.4986 11.0781 327° Northwest  Level Estimated
Sun 08:20:00 PM 49.4986 11.0781 327° Northwest  Level Estimated
Sun 08:21:00 PM 49.4986 11.0781 327° Northwest  Level Estimated
Sun 08:22:00 PM 49.4986 11.0781 327° Northwest  Level Estimated
Sun 08:23:00 PM 49.4986 11.0781 327° Northwest  Level Estimated
Sun 08:24:00 PM 49.4986 11.0781 327° Northwest  Level Estimated
Sun 08:25:00 PM 49.4986 11.0781 327° Northwest  Level Estimated
Sun 08:26:00 PM 49.4986 11.0781 327° Northwest  Level Estimated
Sun 08:27:00 PM 49.4986 11.0781 327° Northwest  Level Estimated
Sun 08:28:00 PM 49.4986 11.0781 327° Northwest  Level Estimated
Sun 08:29:00 PM 49.4986 11.0781 327° Northwest  Level Estimated
Sun 08:30:00 PM 49.4986 11.0781 327° Northwest  Level Estimated
Sun 08:31:00 PM 49.4986 11.0781 327° Northwest  Level Estimated
Sun 08:32:00 PM 49.4986 11.0781 327° Northwest  Level Estimated

Login

Don't have an account? Register now (free) for customized features, flight alerts, and more!